Time;durP1;ratioP1;P1;durP2;ratioP2;P2;SDS_P1;SDS_P2;PMS_P1;PMS_P2;Temp;Humidity;BMP_temperature;BMP_pressure;BME280_temperature;BME280_humidity;BME280_pressure;Samples;Min_cycle;Max_cycle;Signal;HPM_P1;HPM_P2
2023/08/30 00:00:42;;;;;;;4.43;2.97;;;;;;;17.68;60.57;100824.66;5099102;28;20040;-62
2023/08/30 00:03:11;;;;;;;5.63;3.10;;;;;;;17.59;60.54;100810.75;5058909;28;1096805;-63
2023/08/30 00:05:40;;;;;;;5.00;3.22;;;;;;;17.67;60.64;100820.31;5090771;28;20112;-63
2023/08/30 00:08:08;;;;;;;7.03;3.53;;;;;;;17.65;60.58;100819.72;5093780;28;20408;-63
2023/08/30 00:10:38;;;;;;;6.88;3.42;;;;;;;17.64;60.53;100818.91;5096886;28;20040;-63
2023/08/30 00:13:06;;;;;;;5.95;3.42;;;;;;;17.63;60.42;100824.59;5095220;28;20052;-62
2023/08/30 00:15:34;;;;;;;4.00;2.90;;;;;;;17.63;60.51;100814.56;5094517;28;20487;-63
2023/08/30 00:18:02;;;;;;;5.72;3.47;;;;;;;17.62;60.45;100815.63;5095889;28;20542;-63
2023/08/30 00:20:29;;;;;;;6.00;3.60;;;;;;;17.61;60.38;100811.28;5099913;28;20044;-63
2023/08/30 00:22:57;;;;;;;5.32;3.05;;;;;;;17.61;60.27;100807.75;5099469;28;20043;-62
2023/08/30 00:25:25;;;;;;;6.30;3.13;;;;;;;17.60;60.26;100801.50;5099740;28;20048;-63
2023/08/30 00:27:54;;;;;;;9.20;2.80;;;;;;;17.57;60.34;100800.16;5097616;28;20048;-63
2023/08/30 00:30:22;;;;;;;3.30;2.55;;;;;;;17.57;60.22;100805.56;5091481;28;20083;-62
2023/08/30 00:32:50;;;;;;;6.32;2.97;;;;;;;17.57;60.05;100802.84;5099559;28;20055;-62
2023/08/30 00:35:18;;;;;;;3.35;2.60;;;;;;;17.56;60.24;100801.22;5094267;28;20060;-63
2023/08/30 00:37:46;;;;;;;4.18;2.90;;;;;;;17.56;60.21;100794.97;5100773;28;20048;-64
2023/08/30 00:40:13;;;;;;;6.47;3.35;;;;;;;17.56;60.22;100798.50;5097876;28;20117;-63
2023/08/30 00:42:41;;;;;;;5.32;3.47;;;;;;;17.54;59.96;100794.44;5094605;28;20045;-63
2023/08/30 00:45:11;;;;;;;4.32;3.05;;;;;;;17.53;60.05;100790.91;5085707;28;20052;-63
2023/08/30 00:47:39;;;;;;;4.53;3.00;;;;;;;17.52;59.90;100791.97;5099043;28;20056;-63
2023/08/30 00:50:07;;;;;;;4.85;3.05;;;;;;;17.51;59.88;100787.63;5101853;28;20076;-63
2023/08/30 00:52:36;;;;;;;5.53;3.05;;;;;;;17.51;60.00;100789.53;5097655;28;20051;-63
2023/08/30 00:55:04;;;;;;;5.38;3.00;;;;;;;17.50;60.00;100777.84;5097173;28;20039;-63
2023/08/30 00:57:31;;;;;;;5.28;3.30;;;;;;;17.48;59.92;100780.03;5102656;28;20044;-63
2023/08/30 00:59:59;;;;;;;4.38;3.00;;;;;;;17.47;59.81;100777.56;5092372;28;20047;-63
2023/08/30 01:02:29;;;;;;;4.15;2.80;;;;;;;17.46;59.81;100774.03;5090952;28;20049;-63
2023/08/30 01:04:57;;;;;;;5.75;2.97;;;;;;;17.46;59.80;100774.03;5100550;28;20423;-63
2023/08/30 01:07:27;;;;;;;4.03;3.00;;;;;;;17.44;59.67;100781.66;5100654;28;20071;-63
2023/08/30 01:09:55;;;;;;;7.47;3.55;;;;;;;17.30;59.87;100752.56;5095404;28;20119;-63
2023/08/30 01:12:28;;;;;;;5.88;3.80;;;;;;;17.41;59.76;100774.03;5100011;28;20124;-63
2023/08/30 01:15:01;;;;;;;4.40;3.20;;;;;;;17.39;59.69;100778.91;5099414;28;20052;-63
2023/08/30 01:17:32;;;;;;;5.43;3.40;;;;;;;17.39;59.65;100780.81;5099063;28;20067;-63
2023/08/30 01:20:05;;;;;;;5.18;3.38;;;;;;;17.34;59.27;100773.47;5095253;28;20059;-63
2023/08/30 01:22:44;;;;;;;5.90;3.27;;;;;;;17.36;59.57;100774.03;5098706;28;20063;-63
2023/08/30 01:25:20;;;;;;;6.47;3.35;;;;;;;17.31;59.74;100765.06;5097463;28;20081;-63
2023/08/30 01:27:52;;;;;;;5.65;3.20;;;;;;;17.34;59.75;100768.03;5096460;28;20044;-63
2023/08/30 01:30:21;;;;;;;6.07;3.05;;;;;;;17.34;59.74;100761.78;5099960;28;20052;-63
2023/08/30 01:32:51;;;;;;;6.60;3.50;;;;;;;17.31;59.70;100763.16;5096096;28;20063;-62
2023/08/30 01:35:19;;;;;;;5.00;3.15;;;;;;;17.29;59.62;100757.19;5094224;28;20040;-63
2023/08/30 01:37:48;;;;;;;4.90;2.83;;;;;;;17.29;59.75;100762.63;5098411;28;20064;-63
2023/08/30 01:40:18;;;;;;;7.30;3.10;;;;;;;17.28;59.71;100762.88;5096941;28;20044;-63
2023/08/30 01:42:48;;;;;;;8.95;3.28;;;;;;;17.20;59.78;100751.47;5093946;28;20048;-63
2023/08/30 01:45:18;;;;;;;6.78;3.45;;;;;;;17.25;59.83;100761.53;5097355;28;20062;-64
2023/08/30 01:47:47;;;;;;;6.00;3.03;;;;;;;17.20;59.73;100747.94;5092926;28;20055;-63
2023/08/30 01:50:16;;;;;;;5.78;3.38;;;;;;;17.23;59.79;100759.09;5097263;28;20064;-62
2023/08/30 01:52:45;;;;;;;6.63;3.30;;;;;;;17.22;59.72;100753.91;5096570;28;20048;-63
2023/08/30 01:55:15;;;;;;;5.95;3.08;;;;;;;17.21;59.76;100749.56;5098553;28;20056;-63
2023/08/30 01:57:43;;;;;;;7.10;3.15;;;;;;;17.21;59.78;100755.00;5099930;28;20055;-63
2023/08/30 02:00:12;;;;;;;7.50;3.60;;;;;;;17.19;59.80;100757.16;5095599;28;20051;-63
2023/08/30 02:02:42;;;;;;;6.20;3.38;;;;;;;17.18;59.83;100761.78;5096360;28;20085;-63
2023/08/30 02:05:12;;;;;;;6.75;3.80;;;;;;;17.15;59.94;100753.34;5094832;28;20051;-63
2023/08/30 02:07:48;;;;;;;6.00;3.78;;;;;;;17.14;59.92;100757.97;5100319;28;20044;-63
2023/08/30 02:10:22;;;;;;;5.37;3.00;;;;;;;17.13;59.93;100758.22;5093356;28;20059;-63
2023/08/30 02:12:53;;;;;;;6.20;3.15;;;;;;;17.12;59.93;100756.59;5091776;28;20413;-64
2023/08/30 02:15:22;;;;;;;6.18;3.47;;;;;;;17.10;60.01;100750.63;5094534;28;20052;-64
2023/08/30 02:17:52;;;;;;;4.97;3.30;;;;;;;17.09;59.93;100747.09;5097776;28;20083;-64
2023/08/30 02:20:20;;;;;;;5.88;3.47;;;;;;;17.08;59.99;100748.19;5094914;28;20071;-64
2023/08/30 02:22:48;;;;;;;7.13;3.15;;;;;;;17.07;59.95;100743.00;5098634;28;20040;-63
2023/08/30 02:25:16;;;;;;;4.25;3.40;;;;;;;17.07;59.98;100738.41;5095289;28;20056;-64
2023/08/30 02:27:44;;;;;;;6.10;2.97;;;;;;;17.06;60.03;100734.06;5096287;28;20044;-63
2023/08/30 02:30:11;;;;;;;7.30;3.15;;;;;;;17.06;60.11;100730.53;5093648;28;20052;-62
2023/08/30 02:32:39;;;;;;;5.22;3.63;;;;;;;17.05;59.84;100731.59;5092211;28;20484;-63
2023/08/30 02:35:09;;;;;;;5.05;3.17;;;;;;;17.04;60.23;100733.50;5093671;28;20067;-63
2023/08/30 02:37:37;;;;;;;5.15;3.20;;;;;;;17.04;60.15;100728.06;5091916;28;20040;-63
2023/08/30 02:40:05;;;;;;;5.65;3.85;;;;;;;17.04;60.11;100722.63;5095202;28;20060;-63
2023/08/30 02:42:33;;;;;;;4.15;3.05;;;;;;;17.03;60.09;100734.59;5096313;28;20052;-63
2023/08/30 02:45:01;;;;;;;7.38;3.17;;;;;;;17.02;60.20;100734.84;5094549;28;20048;-63
2023/08/30 02:47:29;;;;;;;5.03;2.92;;;;;;;17.01;60.27;100731.31;5088205;28;20049;-62
2023/08/30 02:49:57;;;;;;;6.18;3.72;;;;;;;17.01;60.31;100731.31;5096348;28;20044;-63
2023/08/30 02:52:26;;;;;;;6.65;3.17;;;;;;;17.00;60.24;100724.25;5092675;28;20097;-63
2023/08/30 02:54:54;;;;;;;5.75;2.95;;;;;;;16.99;60.20;100722.63;5092743;28;20048;-63
2023/08/30 02:57:22;;;;;;;5.63;2.60;;;;;;;17.01;60.14;100716.94;5093978;28;20464;-63
2023/08/30 02:59:50;;;;;;;5.90;3.40;;;;;;;17.01;60.07;100714.22;5097843;28;20156;-63
2023/08/30 03:02:18;;;;;;;4.75;3.10;;;;;;;16.98;60.07;100710.13;5093274;28;20040;-63
2023/08/30 03:04:46;;;;;;;4.78;2.97;;;;;;;17.00;60.12;100704.44;5092385;28;20070;-63
2023/08/30 03:07:14;;;;;;;5.93;2.80;;;;;;;17.00;60.14;100709.88;5097122;28;20113;-63
2023/08/30 03:09:43;;;;;;;4.68;3.58;;;;;;;16.99;60.34;100708.25;5094276;28;20559;-63
2023/08/30 03:12:11;;;;;;;6.43;3.53;;;;;;;16.98;60.25;100704.69;5089605;28;20066;-64
2023/08/30 03:14:39;;;;;;;5.43;3.10;;;;;;;16.98;60.28;100703.88;5095262;28;20558;-64
2023/08/30 03:17:06;;;;;;;4.07;2.78;;;;;;;16.97;60.28;100700.34;5097653;28;20078;-64
2023/08/30 03:19:34;;;;;;;6.28;3.10;;;;;;;16.97;60.42;100702.25;5093962;28;20047;-64
2023/08/30 03:22:02;;;;;;;5.20;3.45;;;;;;;16.96;60.46;100704.16;5096852;28;20040;-63
2023/08/30 03:24:30;;;;;;;5.38;3.10;;;;;;;16.96;60.33;100706.06;5094108;28;20050;-63
2023/08/30 03:26:59;;;;;;;7.68;3.63;;;;;;;16.94;60.48;100705.50;5094690;28;20045;-63
2023/08/30 03:29:27;;;;;;;6.47;3.50;;;;;;;16.94;60.54;100702.78;5095666;28;20116;-64
2023/08/30 03:31:55;;;;;;;8.40;3.25;;;;;;;16.94;60.63;100697.38;5096206;28;20048;-63
2023/08/30 03:34:23;;;;;;;4.43;2.95;;;;;;;16.94;60.53;100695.47;5095523;28;20082;-64
2023/08/30 03:36:54;;;;;;;6.85;3.50;;;;;;;16.93;60.53;100688.41;5096147;28;20048;-63
2023/08/30 03:39:22;;;;;;;6.22;3.53;;;;;;;16.92;60.55;100682.16;5091801;28;20056;-64
2023/08/30 03:41:50;;;;;;;4.57;3.42;;;;;;;16.92;60.62;100675.91;5096258;28;20089;-64
2023/08/30 03:44:19;;;;;;;7.57;3.30;;;;;;;16.91;60.58;100677.81;5094462;28;20115;-63
2023/08/30 03:46:47;;;;;;;4.93;3.25;;;;;;;16.91;60.69;100666.13;5094103;28;20056;-64
2023/08/30 03:49:15;;;;;;;5.20;3.30;;;;;;;16.89;60.71;100658.25;5098204;28;20138;-64
2023/08/30 03:51:43;;;;;;;5.28;3.58;;;;;;;16.90;60.83;100653.66;5098940;28;20066;-64
2023/08/30 03:54:16;;;;;;;7.07;3.60;;;;;;;16.90;60.69;100642.78;5098044;28;20043;-64
2023/08/30 03:56:44;;;;;;;7.88;3.70;;;;;;;16.90;60.74;100640.88;5100386;28;20079;-64
2023/08/30 03:59:12;;;;;;;5.05;3.13;;;;;;;16.89;60.69;100636.53;5096467;28;20117;-63
2023/08/30 04:01:41;;;;;;;6.20;3.70;;;;;;;16.89;60.82;100633.84;5096799;28;20066;-63
2023/08/30 04:04:09;;;;;;;6.65;3.05;;;;;;;16.89;60.83;100625.69;5102248;28;20048;-63
2023/08/30 04:06:37;;;;;;;9.80;4.38;;;;;;;16.88;60.84;100624.06;5100178;28;20048;-64
2023/08/30 04:09:05;;;;;;;5.78;3.95;;;;;;;16.88;60.93;100617.81;5096893;28;20040;-64
2023/08/30 04:11:33;;;;;;;6.63;3.75;;;;;;;16.87;60.80;100617.00;5098164;28;20048;-63
2023/08/30 04:14:02;;;;;;;6.18;3.88;;;;;;;16.86;60.98;100620.78;5097724;28;20761;-63
2023/08/30 04:16:29;;;;;;;4.82;3.22;;;;;;;16.86;60.73;100615.38;5095435;28;20128;-63
2023/08/30 04:18:59;;;;;;;5.03;3.33;;;;;;;16.86;60.93;100612.66;5098185;28;20051;-64
2023/08/30 04:21:27;;;;;;;5.35;3.10;;;;;;;16.85;60.89;100597.44;5097319;28;20070;-63
2023/08/30 04:23:55;;;;;;;7.00;3.83;;;;;;;16.83;60.89;100609.66;5097379;28;20098;-63
2023/08/30 04:26:23;;;;;;;8.25;3.97;;;;;;;16.81;61.02;100607.22;5098780;28;20548;-63
2023/08/30 04:28:50;;;;;;;6.63;3.40;;;;;;;16.81;61.02;100607.22;5099904;28;20150;-63
2023/08/30 04:31:18;;;;;;;5.45;3.70;;;;;;;16.81;61.07;100603.69;5093180;28;20055;-63
2023/08/30 04:33:46;;;;;;;5.38;3.70;;;;;;;16.80;60.96;100605.59;5097131;28;20063;-63
2023/08/30 04:36:15;;;;;;;6.43;3.33;;;;;;;16.81;60.97;100603.69;5095094;28;20053;-63
2023/08/30 04:38:43;;;;;;;5.38;3.53;;;;;;;16.79;60.98;100595.81;5097388;28;20047;-62
2023/08/30 04:41:27;;;;;;;7.88;3.80;;;;;;;16.78;61.06;100602.31;5098388;28;20044;-64
2023/08/30 04:43:55;;;;;;;5.93;3.58;;;;;;;16.79;61.07;100603.97;5099011;28;20063;-63
2023/08/30 04:46:22;;;;;;;6.18;4.00;;;;;;;16.78;61.17;100596.91;5097266;28;20104;-64
2023/08/30 04:48:50;;;;;;;5.85;3.70;;;;;;;16.78;61.06;100588.75;5094969;28;20059;-66
2023/08/30 04:51:20;;;;;;;7.85;3.60;;;;;;;16.75;61.14;100594.72;5101622;28;20068;-64
2023/08/30 04:53:47;;;;;;;4.95;3.20;;;;;;;16.75;61.23;100591.19;5098633;28;20048;-63
2023/08/30 04:56:17;;;;;;;6.65;4.05;;;;;;;16.68;61.08;100580.59;5095408;28;20074;-63
2023/08/30 04:58:45;;;;;;;7.15;3.65;;;;;;;16.74;61.05;100587.66;5099251;28;20089;-63
2023/08/30 05:01:14;;;;;;;5.18;3.30;;;;;;;16.74;61.14;100592.28;5092429;28;20052;-63
2023/08/30 05:03:42;;;;;;;6.75;3.42;;;;;;;16.73;61.02;100583.31;5097508;28;20045;-63
2023/08/30 05:06:11;;;;;;;4.60;3.10;;;;;;;16.72;61.09;100578.97;5096989;28;20048;-60
2023/08/30 05:08:41;;;;;;;6.50;3.72;;;;;;;16.72;61.12;100578.97;5101016;28;20048;-62
2023/08/30 05:11:09;;;;;;;4.40;2.88;;;;;;;16.70;61.31;100564.84;5096775;28;20070;-63
2023/08/30 05:13:36;;;;;;;8.68;4.25;;;;;;;16.71;61.21;100568.38;5100412;28;20045;-62
2023/08/30 05:16:04;;;;;;;4.90;2.90;;;;;;;16.72;61.09;100572.72;5097329;28;20051;-62
2023/08/30 05:18:32;;;;;;;6.15;3.13;;;;;;;16.71;61.10;100565.66;5099727;28;20587;-62
2023/08/30 05:21:03;;;;;;;6.03;3.58;;;;;;;16.70;61.05;100555.91;5098010;28;20074;-64
2023/08/30 05:23:31;;;;;;;5.85;3.38;;;;;;;16.58;61.29;100542.56;5098201;28;20040;-63
2023/08/30 05:26:00;;;;;;;6.95;3.50;;;;;;;16.69;61.26;100565.94;5097379;28;20293;-63
2023/08/30 05:28:28;;;;;;;4.45;3.00;;;;;;;16.70;61.17;100564.03;5097706;28;20048;-60
2023/08/30 05:30:56;;;;;;;10.25;4.25;;;;;;;16.69;61.28;100563.22;5098655;28;20054;-62
2023/08/30 05:33:23;;;;;;;8.63;3.45;;;;;;;16.68;61.44;100563.50;5096190;28;20090;-61
2023/08/30 05:35:51;;;;;;;6.60;3.50;;;;;;;16.67;61.38;100557.25;5096958;28;20125;-63
2023/08/30 05:38:19;;;;;;;6.18;3.80;;;;;;;16.69;61.30;100546.13;5103005;28;20075;-61
2023/08/30 05:40:47;;;;;;;6.18;3.92;;;;;;;16.69;61.28;100546.94;5100944;28;20044;-63
2023/08/30 05:43:16;;;;;;;6.05;3.22;;;;;;;16.69;61.22;100543.41;5099048;28;20070;-64
2023/08/30 05:45:44;;;;;;;7.40;3.38;;;;;;;16.69;61.38;100544.22;5096150;28;20196;-62
2023/08/30 05:48:12;;;;;;;6.07;3.25;;;;;;;16.68;61.23;100545.31;4741079;28;9999705;-65
2023/08/30 05:50:40;;;;;;;4.93;3.20;;;;;;;16.70;61.36;100550.47;5093346;28;20069;-63
2023/08/30 05:53:08;;;;;;;7.55;3.30;;;;;;;16.69;61.28;100543.41;5092360;28;20075;-62
2023/08/30 05:55:37;;;;;;;4.35;3.10;;;;;;;16.70;61.41;100526.88;5095941;28;20135;-60
2023/08/30 05:58:04;;;;;;;5.22;2.92;;;;;;;16.70;61.30;100528.78;5095845;28;20055;-61
2023/08/30 06:00:34;;;;;;;5.18;3.15;;;;;;;16.70;61.43;100528.78;5098678;28;20081;-62
2023/08/30 06:03:02;;;;;;;6.70;3.45;;;;;;;16.70;61.40;100535.00;5096541;28;20040;-63
2023/08/30 06:05:30;;;;;;;6.10;2.90;;;;;;;16.68;61.68;100529.03;5090072;28;20502;-62
2023/08/30 06:07:58;;;;;;;5.63;2.92;;;;;;;16.72;61.40;100534.75;5096402;28;20084;-61
2023/08/30 06:10:26;;;;;;;9.48;4.70;;;;;;;16.72;61.73;100535.56;5090419;28;20094;-59
2023/08/30 06:12:54;;;;;;;6.45;3.30;;;;;;;16.72;61.72;100530.13;5098356;28;20048;-62
2023/08/30 06:15:22;;;;;;;5.00;3.22;;;;;;;16.71;61.68;100533.94;5099431;28;20040;-62
2023/08/30 06:17:51;;;;;;;6.68;3.45;;;;;;;16.71;61.68;100533.94;5091544;28;20056;-62
2023/08/30 06:20:19;;;;;;;7.10;3.60;;;;;;;16.71;61.63;100528.50;5101818;28;20048;-62
2023/08/30 06:22:47;;;;;;;5.63;2.97;;;;;;;16.71;61.67;100523.06;5099563;28;20128;-61
2023/08/30 06:25:15;;;;;;;4.43;3.13;;;;;;;16.71;61.58;100514.94;5101962;28;20147;-61
2023/08/30 06:27:44;;;;;;;5.32;3.05;;;;;;;16.71;61.65;100523.06;5102743;28;20048;-61
2023/08/30 06:30:13;;;;;;;6.88;3.88;;;;;;;16.72;61.77;100518.47;5101544;28;20055;-61
2023/08/30 06:32:41;;;;;;;6.10;3.80;;;;;;;16.72;61.60;100516.56;5102447;28;20048;-62
2023/08/30 06:35:10;;;;;;;5.05;3.40;;;;;;;16.73;61.73;100514.66;5098983;28;20473;-62
2023/08/30 06:37:38;;;;;;;7.22;3.20;;;;;;;16.60;62.03;100503.22;5103578;28;20073;-62
2023/08/30 06:40:07;;;;;;;7.65;3.53;;;;;;;16.73;61.71;100528.22;5102845;28;20059;-61
2023/08/30 06:42:35;;;;;;;7.38;3.20;;;;;;;16.71;61.80;100520.34;5099413;28;20040;-62
2023/08/30 06:45:04;;;;;;;6.57;4.63;;;;;;;16.72;62.11;100527.41;5096834;28;20059;-62
2023/08/30 06:47:31;;;;;;;5.43;3.60;;;;;;;16.73;61.94;100520.09;5099278;28;20074;-62
2023/08/30 06:50:01;;;;;;;6.05;3.42;;;;;;;16.71;61.91;100512.22;5102496;28;20115;-62
2023/08/30 06:52:30;;;;;;;5.18;3.00;;;;;;;16.72;62.04;100516.56;5088982;28;20056;-61
2023/08/30 06:54:58;;;;;;;6.20;3.30;;;;;;;16.72;62.06;100518.47;5101817;28;20052;-61
2023/08/30 06:57:26;;;;;;;5.03;3.40;;;;;;;16.71;61.92;100523.06;5099406;28;20101;-61
2023/08/30 06:59:53;;;;;;;6.40;3.15;;;;;;;16.71;61.98;100519.53;5098809;28;20052;-61
2023/08/30 07:02:21;;;;;;;6.93;3.72;;;;;;;16.72;62.18;100521.16;5098346;28;20052;-61
2023/08/30 07:04:49;;;;;;;7.22;3.90;;;;;;;16.71;62.56;100520.34;5102394;28;20047;-61
2023/08/30 07:07:17;;;;;;;5.85;3.50;;;;;;;16.71;62.25;100524.97;5101782;28;20056;-61
2023/08/30 07:09:46;;;;;;;5.88;3.70;;;;;;;16.71;62.50;100517.63;5102596;28;20561;-61
2023/08/30 07:12:14;;;;;;;7.88;4.35;;;;;;;16.72;62.52;100521.16;5100553;28;20064;-61
2023/08/30 07:14:42;;;;;;;6.68;3.50;;;;;;;16.70;62.60;100513.31;5099333;28;20055;-61
2023/08/30 07:17:09;;;;;;;7.90;3.30;;;;;;;16.70;62.74;100509.78;5097028;28;20047;-61
2023/08/30 07:19:37;;;;;;;6.57;2.97;;;;;;;16.70;62.61;100505.16;5101826;28;20044;-62
2023/08/30 07:22:05;;;;;;;6.28;3.30;;;;;;;16.71;62.78;100501.38;5099818;28;20074;-62
2023/08/30 07:24:33;;;;;;;5.10;3.08;;;;;;;16.71;62.73;100497.84;5105965;28;20044;-62
2023/08/30 07:27:02;;;;;;;6.38;3.25;;;;;;;16.70;62.55;100498.91;5106652;28;20044;-61
2023/08/30 07:29:30;;;;;;;6.10;3.35;;;;;;;16.70;62.92;100491.59;5105255;28;20121;-62
2023/08/30 07:31:58;;;;;;;6.68;3.03;;;;;;;16.70;62.93;100488.06;5102452;28;20111;-61
2023/08/30 07:34:26;;;;;;;6.15;2.90;;;;;;;16.70;62.91;100475.31;5105148;28;20044;-61
2023/08/30 07:36:55;;;;;;;5.20;2.97;;;;;;;16.72;62.72;100485.91;5105596;28;20047;-61
2023/08/30 07:39:23;;;;;;;4.47;3.35;;;;;;;16.72;63.04;100475.03;5104383;28;20125;-62
2023/08/30 07:41:51;;;;;;;5.70;3.00;;;;;;;16.72;63.04;100473.13;5097012;28;20044;-61
2023/08/30 07:44:20;;;;;;;4.22;2.90;;;;;;;16.74;63.07;100473.69;5103213;28;20048;-61
2023/08/30 07:46:48;;;;;;;5.70;2.83;;;;;;;16.73;63.25;100480.19;5099195;28;20052;-62
2023/08/30 07:49:16;;;;;;;4.03;2.70;;;;;;;16.74;63.04;100478.28;5101366;28;20048;-62
2023/08/30 07:51:45;;;;;;;5.20;2.33;;;;;;;16.74;63.15;100475.59;5104447;28;20040;-64
2023/08/30 07:54:13;;;;;;;4.53;2.63;;;;;;;16.73;63.16;100477.47;5096599;28;20060;-61
2023/08/30 07:56:43;;;;;;;4.95;2.33;;;;;;;16.73;63.52;100474.75;5100568;28;20052;-62
2023/08/30 07:59:17;;;;;;;7.28;2.70;;;;;;;16.73;63.29;100474.75;5101708;28;20523;-62
2023/08/30 08:01:47;;;;;;;6.03;2.47;;;;;;;16.74;63.33;100473.69;5097173;28;20102;-62
2023/08/30 08:04:14;;;;;;;4.93;2.88;;;;;;;16.73;63.36;100480.19;5100940;28;20149;-62
2023/08/30 08:06:42;;;;;;;3.65;2.10;;;;;;;16.69;63.39;100470.97;5098501;28;20194;-62
2023/08/30 08:09:23;;;;;;;4.22;2.17;;;;;;;16.73;63.78;100474.75;5097348;28;20048;-62
2023/08/30 08:11:51;;;;;;;4.50;2.30;;;;;;;16.74;63.43;100475.59;5100600;28;20044;-61
2023/08/30 08:14:19;;;;;;;4.03;1.85;;;;;;;16.75;64.07;100478.03;5095176;28;20484;-60
2023/08/30 08:16:48;;;;;;;3.72;1.95;;;;;;;16.74;63.77;100479.09;5098412;28;20048;-61
2023/08/30 08:19:16;;;;;;;4.93;2.30;;;;;;;16.75;63.84;100477.22;5101046;28;20116;-61
2023/08/30 08:21:44;;;;;;;6.00;2.65;;;;;;;16.76;63.81;100476.13;5103596;28;20040;-60
2023/08/30 08:24:11;;;;;;;4.85;2.92;;;;;;;16.80;63.93;100478.03;5100821;28;20044;-60
2023/08/30 08:26:39;;;;;;;7.05;2.80;;;;;;;16.78;63.83;100482.09;5101683;28;20048;-62
2023/08/30 08:29:07;;;;;;;4.57;2.33;;;;;;;16.76;63.93;100485.06;5101912;28;20404;-61
2023/08/30 08:31:35;;;;;;;4.95;2.40;;;;;;;16.74;64.08;100481.81;5102252;28;20048;-61
2023/08/30 08:34:10;;;;;;;5.50;2.55;;;;;;;16.74;64.00;100483.72;5100033;28;20067;-60
2023/08/30 08:36:39;;;;;;;3.78;1.98;;;;;;;16.73;64.06;100482.09;5101168;28;20119;-61
2023/08/30 08:39:07;;;;;;;4.10;2.30;;;;;;;16.73;64.21;100482.91;5103188;28;20062;-61
2023/08/30 08:41:42;;;;;;;3.70;2.28;;;;;;;16.74;64.11;100478.28;5095261;28;20060;-61
2023/08/30 08:44:10;;;;;;;4.43;2.50;;;;;;;16.74;64.02;100475.59;5099124;28;20046;-61
2023/08/30 08:46:39;;;;;;;4.22;2.40;;;;;;;16.74;64.24;100475.59;5104058;28;20052;-62
2023/08/30 08:49:13;;;;;;;3.00;2.28;;;;;;;16.71;63.98;100474.22;5101520;28;20048;-61
2023/08/30 08:51:42;;;;;;;3.72;2.05;;;;;;;16.73;64.40;100473.94;5102099;28;20044;-61
2023/08/30 08:54:10;;;;;;;4.22;2.47;;;;;;;16.73;64.36;100474.75;5099487;28;20074;-62
2023/08/30 08:56:39;;;;;;;3.20;1.88;;;;;;;16.63;64.51;100463.88;5101269;28;20040;-62
2023/08/30 08:59:08;;;;;;;5.78;2.05;;;;;;;16.73;64.70;100479.38;5101149;28;20070;-61
2023/08/30 09:01:39;;;;;;;3.97;1.88;;;;;;;16.73;64.53;100482.91;5099042;28;20040;-61
2023/08/30 09:04:11;;;;;;;3.38;2.00;;;;;;;16.73;65.11;100474.75;5101872;28;20063;-61
2023/08/30 09:06:40;;;;;;;3.45;2.22;;;;;;;16.73;64.88;100479.38;5096769;28;20044;-62
2023/08/30 09:09:09;;;;;;;5.68;2.17;;;;;;;16.72;65.08;100484.00;5102415;28;20332;-60
2023/08/30 09:11:37;;;;;;;4.53;2.05;;;;;;;16.69;65.53;100479.09;5095354;28;20043;-61
2023/08/30 09:14:18;;;;;;;5.80;2.17;;;;;;;16.72;65.25;100478.56;5095468;28;20059;-61
2023/08/30 09:16:55;;;;;;;5.65;2.20;;;;;;;16.70;65.08;100483.44;5096175;28;20048;-61
2023/08/30 09:19:25;;;;;;;5.05;2.17;;;;;;;16.73;65.74;100492.94;5097116;28;20142;-61
2023/08/30 09:21:53;;;;;;;3.00;1.83;;;;;;;16.71;65.44;100485.06;5101015;28;20048;-61
2023/08/30 09:24:22;;;;;;;4.10;1.95;;;;;;;16.71;65.46;100487.78;5101742;28;20052;-61
2023/08/30 09:26:50;;;;;;;3.38;1.98;;;;;;;16.71;65.34;100493.22;5099999;28;20040;-62
2023/08/30 09:29:19;;;;;;;4.05;2.00;;;;;;;16.73;65.84;100490.22;5099230;28;20120;-61
2023/08/30 09:31:47;;;;;;;2.42;1.80;;;;;;;16.73;65.48;100493.75;5099844;28;20053;-63
2023/08/30 09:34:15;;;;;;;2.28;1.60;;;;;;;16.72;65.40;100489.41;5101653;28;20055;-60
2023/08/30 09:36:46;;;;;;;2.78;1.50;;;;;;;16.81;65.35;100478.84;5098393;28;20041;-65
2023/08/30 09:39:15;;;;;;;3.40;1.67;;;;;;;16.77;65.54;100481.28;5098203;28;20048;-61
2023/08/30 09:41:44;;;;;;;3.80;1.92;;;;;;;16.76;65.58;100478.84;5098827;28;20412;-63
2023/08/30 09:44:12;;;;;;;2.45;1.88;;;;;;;16.76;65.26;100479.66;5099125;28;20071;-61
2023/08/30 09:46:44;;;;;;;2.33;1.58;;;;;;;16.78;65.32;100485.63;5101885;28;20087;-62
2023/08/30 09:49:21;;;;;;;3.75;2.00;;;;;;;16.78;65.47;100484.81;5100839;28;20052;-62
2023/08/30 09:51:52;;;;;;;1.75;1.30;;;;;;;16.79;65.40;100491.88;5099291;28;20044;-62
2023/08/30 09:54:23;;;;;;;3.70;2.15;;;;;;;16.78;65.76;100485.63;5098924;28;20140;-66
2023/08/30 09:57:07;;;;;;;4.50;2.38;;;;;;;16.78;65.94;100485.63;5097538;28;20044;-62
2023/08/30 09:59:34;;;;;;;2.08;1.50;;;;;;;16.80;65.74;100477.22;5100241;28;20123;-62
2023/08/30 10:02:04;;;;;;;2.53;1.63;;;;;;;16.98;65.57;100473.94;5101835;28;20041;-62
2023/08/30 10:04:32;;;;;;;2.38;1.50;;;;;;;16.87;65.58;100461.47;5101993;28;20082;-62
2023/08/30 10:07:04;;;;;;;3.13;1.63;;;;;;;16.88;65.45;100466.63;5102288;28;20411;-63
2023/08/30 10:09:33;;;;;;;2.80;1.58;;;;;;;16.88;65.59;100472.06;5101871;28;20048;-62
2023/08/30 10:12:03;;;;;;;2.78;1.73;;;;;;;16.88;66.20;100472.06;5101540;28;20052;-62
2023/08/30 10:14:31;;;;;;;2.72;1.92;;;;;;;16.91;66.31;100473.41;5099495;28;20044;-62
2023/08/30 10:17:03;;;;;;;2.58;1.90;;;;;;;16.94;66.59;100472.03;5098957;28;20044;-61
2023/08/30 10:19:32;;;;;;;2.90;1.70;;;;;;;16.91;66.62;100460.66;5101651;28;20050;-63
2023/08/30 10:22:04;;;;;;;2.50;1.85;;;;;;;17.00;66.25;100460.09;5095529;28;20047;-62
2023/08/30 10:24:37;;;;;;;2.53;1.80;;;;;;;16.96;66.46;100467.97;5095798;28;20125;-62
2023/08/30 10:27:25;;;;;;;2.72;1.73;;;;;;;16.95;66.66;100460.91;5099139;28;20094;-62
2023/08/30 10:29:55;;;;;;;2.30;1.75;;;;;;;16.95;66.92;100462.81;5100291;28;20040;-61
2023/08/30 10:32:23;;;;;;;1.80;1.40;;;;;;;16.96;66.70;100457.09;5093368;28;20180;-62
2023/08/30 10:34:52;;;;;;;2.60;1.70;;;;;;;16.97;66.79;100464.16;5099335;28;20139;-62
2023/08/30 10:37:25;;;;;;;3.25;1.60;;;;;;;17.00;66.82;100458.19;5103165;28;20052;-62
2023/08/30 10:39:54;;;;;;;3.05;1.80;;;;;;;16.99;66.68;100448.41;5093220;28;20040;-62
2023/08/30 10:42:24;;;;;;;3.13;1.98;;;;;;;17.02;66.83;100450.59;5101441;28;20136;-63
2023/08/30 10:44:53;;;;;;;2.83;1.75;;;;;;;17.05;66.76;100451.94;5093825;28;20051;-62
2023/08/30 10:47:40;;;;;;;3.28;2.13;;;;;;;17.06;67.21;100450.84;5100141;28;20060;-63
2023/08/30 10:50:10;;;;;;;3.00;1.83;;;;;;;17.08;67.04;100443.25;5100981;28;20115;-62
2023/08/30 10:52:40;;;;;;;2.67;1.75;;;;;;;17.07;66.75;100438.91;5098559;28;20141;-62
2023/08/30 10:55:09;;;;;;;2.55;1.70;;;;;;;17.13;66.97;100446.75;5100660;28;20063;-63
2023/08/30 10:57:38;;;;;;;5.68;2.40;;;;;;;17.13;66.50;100445.94;5102504;28;20107;-62
2023/08/30 11:00:09;;;;;;;3.03;1.55;;;;;;;17.15;66.89;100444.59;5100637;28;20105;-63
2023/08/30 11:02:38;;;;;;;3.15;1.88;;;;;;;17.17;66.86;100436.16;5102993;28;20048;-62
2023/08/30 11:05:07;;;;;;;4.40;2.33;;;;;;;17.18;66.97;100446.75;5099830;28;20048;-63
2023/08/30 11:07:36;;;;;;;2.63;2.00;;;;;;;17.20;67.15;100436.44;5102386;28;20091;-62
2023/08/30 11:10:07;;;;;;;3.45;2.40;;;;;;;17.17;67.38;100428.00;5095121;28;20052;-62
2023/08/30 11:12:35;;;;;;;3.72;2.25;;;;;;;17.23;67.29;100440.50;5101421;28;20101;-63
2023/08/30 11:15:04;;;;;;;3.45;2.25;;;;;;;17.24;66.87;100442.13;5092995;28;20047;-63
2023/08/30 11:17:32;;;;;;;3.13;1.77;;;;;;;17.28;67.18;100445.09;5103674;28;20044;-63
2023/08/30 11:20:07;;;;;;;3.30;2.15;;;;;;;17.33;67.18;100451.34;5099169;28;20063;-62
2023/08/30 11:22:37;;;;;;;4.95;2.30;;;;;;;17.38;67.27;100445.03;5095268;28;20051;-62
2023/08/30 11:25:10;;;;;;;4.15;2.60;;;;;;;17.33;66.96;100445.91;5101086;28;20048;-61
2023/08/30 11:27:38;;;;;;;4.10;2.85;;;;;;;17.31;67.18;100441.84;5099635;28;20048;-59
2023/08/30 11:30:08;;;;;;;2.97;2.53;;;;;;;17.31;67.31;100445.34;5099904;28;20040;-60
2023/08/30 11:32:36;;;;;;;2.85;2.00;;;;;;;17.31;67.20;100445.34;5098947;28;20134;-59